sensor_id;sensor_type;location;lat;lon;timestamp;P1;durP1;ratioP1;P2;durP2;ratioP2
22922;SDS011;11627;51.322;22.816;2023-07-08T00:00:53;13.68;;;8.32;;
22922;SDS011;11627;51.322;22.816;2023-07-08T00:03:20;17.25;;;8.60;;
22922;SDS011;11627;51.322;22.816;2023-07-08T00:05:46;18.67;;;9.13;;
22922;SDS011;11627;51.322;22.816;2023-07-08T00:08:13;16.95;;;8.95;;
22922;SDS011;11627;51.322;22.816;2023-07-08T00:10:40;15.27;;;8.25;;
22922;SDS011;11627;51.322;22.816;2023-07-08T00:13:07;16.52;;;8.10;;
22922;SDS011;11627;51.322;22.816;2023-07-08T00:15:34;17.02;;;8.45;;
22922;SDS011;11627;51.322;22.816;2023-07-08T00:18:05;14.18;;;8.35;;
22922;SDS011;11627;51.322;22.816;2023-07-08T00:20:47;17.13;;;7.53;;
22922;SDS011;11627;51.322;22.816;2023-07-08T00:23:14;19.83;;;8.00;;
22922;SDS011;11627;51.322;22.816;2023-07-08T00:25:41;16.02;;;8.25;;
22922;SDS011;11627;51.322;22.816;2023-07-08T00:28:12;14.48;;;8.25;;
22922;SDS011;11627;51.322;22.816;2023-07-08T00:30:42;17.00;;;8.60;;
22922;SDS011;11627;51.322;22.816;2023-07-08T00:33:09;17.75;;;8.45;;
22922;SDS011;11627;51.322;22.816;2023-07-08T00:35:35;25.42;;;8.90;;
22922;SDS011;11627;51.322;22.816;2023-07-08T00:40:58;19.17;;;7.63;;
22922;SDS011;11627;51.322;22.816;2023-07-08T00:43:40;19.95;;;8.88;;
22922;SDS011;11627;51.322;22.816;2023-07-08T00:51:32;21.02;;;8.13;;
22922;SDS011;11627;51.322;22.816;2023-07-08T00:54:00;15.70;;;7.57;;
22922;SDS011;11627;51.322;22.816;2023-07-08T00:56:33;19.55;;;7.20;;
22922;SDS011;11627;51.322;22.816;2023-07-08T00:59:14;16.73;;;7.55;;
22922;SDS011;11627;51.322;22.816;2023-07-08T01:01:47;12.95;;;7.85;;
22922;SDS011;11627;51.322;22.816;2023-07-08T01:06:44;18.08;;;7.72;;
22922;SDS011;11627;51.322;22.816;2023-07-08T01:09:22;17.48;;;7.45;;
22922;SDS011;11627;51.322;22.816;2023-07-08T01:11:56;24.90;;;8.10;;
22922;SDS011;11627;51.322;22.816;2023-07-08T01:14:28;19.20;;;7.53;;
22922;SDS011;11627;51.322;22.816;2023-07-08T01:16:57;21.63;;;7.65;;
22922;SDS011;11627;51.322;22.816;2023-07-08T01:19:23;19.67;;;7.15;;
22922;SDS011;11627;51.322;22.816;2023-07-08T01:24:30;17.70;;;7.00;;
22922;SDS011;11627;51.322;22.816;2023-07-08T01:27:00;15.50;;;8.32;;
22922;SDS011;11627;51.322;22.816;2023-07-08T01:29:30;20.27;;;7.22;;
22922;SDS011;11627;51.322;22.816;2023-07-08T01:31:56;20.42;;;7.72;;
22922;SDS011;11627;51.322;22.816;2023-07-08T01:34:28;17.85;;;7.25;;
22922;SDS011;11627;51.322;22.816;2023-07-08T01:36:55;17.60;;;7.35;;
22922;SDS011;11627;51.322;22.816;2023-07-08T01:39:24;18.05;;;7.70;;
22922;SDS011;11627;51.322;22.816;2023-07-08T01:41:56;21.77;;;8.15;;
22922;SDS011;11627;51.322;22.816;2023-07-08T01:44:27;17.63;;;7.63;;
22922;SDS011;11627;51.322;22.816;2023-07-08T01:47:00;18.15;;;7.65;;
22922;SDS011;11627;51.322;22.816;2023-07-08T01:49:37;20.60;;;7.80;;
22922;SDS011;11627;51.322;22.816;2023-07-08T01:52:06;28.23;;;7.95;;
22922;SDS011;11627;51.322;22.816;2023-07-08T01:54:34;11.93;;;7.55;;
22922;SDS011;11627;51.322;22.816;2023-07-08T01:57:00;16.15;;;7.20;;
22922;SDS011;11627;51.322;22.816;2023-07-08T01:59:27;14.55;;;7.60;;
22922;SDS011;11627;51.322;22.816;2023-07-08T02:01:54;16.70;;;7.18;;
22922;SDS011;11627;51.322;22.816;2023-07-08T02:04:20;14.65;;;7.55;;
22922;SDS011;11627;51.322;22.816;2023-07-08T02:06:53;10.57;;;7.30;;
22922;SDS011;11627;51.322;22.816;2023-07-08T02:09:20;19.15;;;8.00;;
22922;SDS011;11627;51.322;22.816;2023-07-08T02:11:47;16.58;;;7.45;;
22922;SDS011;11627;51.322;22.816;2023-07-08T02:14:12;16.13;;;7.18;;
22922;SDS011;11627;51.322;22.816;2023-07-08T02:16:38;16.88;;;6.57;;
22922;SDS011;11627;51.322;22.816;2023-07-08T02:19:04;21.05;;;7.18;;
22922;SDS011;11627;51.322;22.816;2023-07-08T02:21:30;19.23;;;7.15;;
22922;SDS011;11627;51.322;22.816;2023-07-08T02:23:56;15.25;;;7.50;;
22922;SDS011;11627;51.322;22.816;2023-07-08T02:26:22;18.92;;;6.57;;
22922;SDS011;11627;51.322;22.816;2023-07-08T02:28:49;13.77;;;7.00;;
22922;SDS011;11627;51.322;22.816;2023-07-08T02:31:14;15.25;;;7.32;;
22922;SDS011;11627;51.322;22.816;2023-07-08T02:33:40;18.35;;;7.20;;
22922;SDS011;11627;51.322;22.816;2023-07-08T02:36:06;22.02;;;7.97;;
22922;SDS011;11627;51.322;22.816;2023-07-08T02:38:32;20.52;;;7.93;;
22922;SDS011;11627;51.322;22.816;2023-07-08T02:40:58;15.38;;;7.18;;
22922;SDS011;11627;51.322;22.816;2023-07-08T02:43:24;17.00;;;6.85;;
22922;SDS011;11627;51.322;22.816;2023-07-08T02:45:50;17.65;;;7.20;;
22922;SDS011;11627;51.322;22.816;2023-07-08T02:48:17;15.52;;;7.22;;
22922;SDS011;11627;51.322;22.816;2023-07-08T02:50:44;13.23;;;7.72;;
22922;SDS011;11627;51.322;22.816;2023-07-08T02:53:11;16.88;;;8.15;;
22922;SDS011;11627;51.322;22.816;2023-07-08T02:55:38;10.57;;;6.82;;
22922;SDS011;11627;51.322;22.816;2023-07-08T02:58:04;13.05;;;6.80;;
22922;SDS011;11627;51.322;22.816;2023-07-08T03:00:30;14.98;;;7.55;;
22922;SDS011;11627;51.322;22.816;2023-07-08T03:02:56;22.10;;;7.80;;
22922;SDS011;11627;51.322;22.816;2023-07-08T03:05:22;16.77;;;8.13;;
22922;SDS011;11627;51.322;22.816;2023-07-08T03:07:48;15.13;;;9.18;;
22922;SDS011;11627;51.322;22.816;2023-07-08T03:10:14;20.85;;;8.40;;
22922;SDS011;11627;51.322;22.816;2023-07-08T03:12:40;19.23;;;9.05;;
22922;SDS011;11627;51.322;22.816;2023-07-08T03:15:05;25.05;;;8.65;;
22922;SDS011;11627;51.322;22.816;2023-07-08T03:17:32;24.23;;;8.98;;
22922;SDS011;11627;51.322;22.816;2023-07-08T03:19:57;17.05;;;7.25;;
22922;SDS011;11627;51.322;22.816;2023-07-08T03:22:23;20.50;;;7.80;;
22922;SDS011;11627;51.322;22.816;2023-07-08T03:24:49;33.72;;;8.60;;
22922;SDS011;11627;51.322;22.816;2023-07-08T03:27:15;21.17;;;8.75;;
22922;SDS011;11627;51.322;22.816;2023-07-08T03:29:42;23.17;;;8.57;;
22922;SDS011;11627;51.322;22.816;2023-07-08T03:32:11;22.00;;;9.13;;
22922;SDS011;11627;51.322;22.816;2023-07-08T03:34:38;25.85;;;10.63;;
22922;SDS011;11627;51.322;22.816;2023-07-08T03:37:04;20.67;;;9.07;;
22922;SDS011;11627;51.322;22.816;2023-07-08T03:39:31;15.27;;;9.10;;
22922;SDS011;11627;51.322;22.816;2023-07-08T03:41:57;17.08;;;8.90;;
22922;SDS011;11627;51.322;22.816;2023-07-08T03:44:23;21.17;;;8.30;;
22922;SDS011;11627;51.322;22.816;2023-07-08T03:46:49;16.65;;;8.27;;
22922;SDS011;11627;51.322;22.816;2023-07-08T03:49:19;15.50;;;8.73;;
22922;SDS011;11627;51.322;22.816;2023-07-08T03:51:49;14.48;;;8.52;;
22922;SDS011;11627;51.322;22.816;2023-07-08T03:54:19;15.00;;;9.15;;
22922;SDS011;11627;51.322;22.816;2023-07-08T03:56:47;17.40;;;9.18;;
22922;SDS011;11627;51.322;22.816;2023-07-08T03:59:13;20.55;;;9.50;;
22922;SDS011;11627;51.322;22.816;2023-07-08T04:01:40;16.77;;;9.15;;
22922;SDS011;11627;51.322;22.816;2023-07-08T04:04:06;19.00;;;9.07;;
22922;SDS011;11627;51.322;22.816;2023-07-08T04:06:36;15.32;;;9.30;;
22922;SDS011;11627;51.322;22.816;2023-07-08T04:09:02;15.57;;;9.57;;
22922;SDS011;11627;51.322;22.816;2023-07-08T04:11:28;17.05;;;8.45;;
22922;SDS011;11627;51.322;22.816;2023-07-08T04:13:54;13.07;;;8.38;;
22922;SDS011;11627;51.322;22.816;2023-07-08T04:18:54;15.25;;;7.78;;
22922;SDS011;11627;51.322;22.816;2023-07-08T04:21:21;10.90;;;7.90;;
22922;SDS011;11627;51.322;22.816;2023-07-08T04:23:50;17.27;;;7.88;;
22922;SDS011;11627;51.322;22.816;2023-07-08T04:26:16;11.98;;;7.55;;
22922;SDS011;11627;51.322;22.816;2023-07-08T04:28:44;11.27;;;7.45;;
22922;SDS011;11627;51.322;22.816;2023-07-08T04:31:10;11.98;;;7.13;;
22922;SDS011;11627;51.322;22.816;2023-07-08T04:33:36;11.32;;;6.85;;
22922;SDS011;11627;51.322;22.816;2023-07-08T04:36:02;9.82;;;6.82;;
22922;SDS011;11627;51.322;22.816;2023-07-08T04:38:28;9.70;;;7.03;;
22922;SDS011;11627;51.322;22.816;2023-07-08T04:40:54;9.63;;;6.70;;
22922;SDS011;11627;51.322;22.816;2023-07-08T04:43:22;8.63;;;6.20;;
22922;SDS011;11627;51.322;22.816;2023-07-08T04:45:54;7.95;;;6.25;;
22922;SDS011;11627;51.322;22.816;2023-07-08T04:48:21;9.98;;;6.20;;
22922;SDS011;11627;51.322;22.816;2023-07-08T04:50:50;7.82;;;5.93;;
22922;SDS011;11627;51.322;22.816;2023-07-08T04:53:17;11.07;;;5.88;;
22922;SDS011;11627;51.322;22.816;2023-07-08T04:55:44;10.55;;;6.35;;
22922;SDS011;11627;51.322;22.816;2023-07-08T04:58:21;7.32;;;5.78;;
22922;SDS011;11627;51.322;22.816;2023-07-08T05:00:47;9.13;;;5.47;;
22922;SDS011;11627;51.322;22.816;2023-07-08T05:03:13;10.38;;;5.20;;
22922;SDS011;11627;51.322;22.816;2023-07-08T05:05:39;6.35;;;4.82;;
22922;SDS011;11627;51.322;22.816;2023-07-08T05:08:06;6.15;;;4.88;;
22922;SDS011;11627;51.322;22.816;2023-07-08T05:10:32;10.55;;;4.57;;
22922;SDS011;11627;51.322;22.816;2023-07-08T05:12:59;6.10;;;4.40;;
22922;SDS011;11627;51.322;22.816;2023-07-08T05:15:25;9.60;;;4.82;;
22922;SDS011;11627;51.322;22.816;2023-07-08T05:17:51;8.60;;;4.45;;
22922;SDS011;11627;51.322;22.816;2023-07-08T05:20:17;9.98;;;4.60;;
22922;SDS011;11627;51.322;22.816;2023-07-08T05:22:44;9.18;;;4.60;;
22922;SDS011;11627;51.322;22.816;2023-07-08T05:25:11;6.30;;;4.60;;
22922;SDS011;11627;51.322;22.816;2023-07-08T05:27:38;7.85;;;4.10;;
22922;SDS011;11627;51.322;22.816;2023-07-08T05:30:04;7.90;;;4.40;;
22922;SDS011;11627;51.322;22.816;2023-07-08T05:32:32;7.75;;;4.70;;
22922;SDS011;11627;51.322;22.816;2023-07-08T05:34:58;7.70;;;4.30;;
22922;SDS011;11627;51.322;22.816;2023-07-08T05:37:24;11.75;;;5.15;;
22922;SDS011;11627;51.322;22.816;2023-07-08T05:39:52;6.10;;;4.55;;
22922;SDS011;11627;51.322;22.816;2023-07-08T05:42:21;6.93;;;4.50;;
22922;SDS011;11627;51.322;22.816;2023-07-08T05:44:49;6.60;;;4.13;;
22922;SDS011;11627;51.322;22.816;2023-07-08T05:47:18;6.97;;;4.60;;
22922;SDS011;11627;51.322;22.816;2023-07-08T05:49:44;7.57;;;3.80;;
22922;SDS011;11627;51.322;22.816;2023-07-08T05:52:10;9.45;;;4.13;;
22922;SDS011;11627;51.322;22.816;2023-07-08T05:54:39;6.00;;;4.15;;
22922;SDS011;11627;51.322;22.816;2023-07-08T05:57:07;8.20;;;4.57;;
22922;SDS011;11627;51.322;22.816;2023-07-08T05:59:35;9.32;;;3.97;;
22922;SDS011;11627;51.322;22.816;2023-07-08T06:02:03;5.80;;;3.95;;
22922;SDS011;11627;51.322;22.816;2023-07-08T06:04:31;5.82;;;3.75;;
22922;SDS011;11627;51.322;22.816;2023-07-08T06:06:57;8.23;;;3.72;;
22922;SDS011;11627;51.322;22.816;2023-07-08T06:09:23;6.45;;;3.85;;
22922;SDS011;11627;51.322;22.816;2023-07-08T06:11:49;6.07;;;3.67;;
22922;SDS011;11627;51.322;22.816;2023-07-08T06:14:15;7.70;;;4.05;;
22922;SDS011;11627;51.322;22.816;2023-07-08T06:16:41;5.78;;;3.80;;
22922;SDS011;11627;51.322;22.816;2023-07-08T06:19:07;12.55;;;3.83;;
22922;SDS011;11627;51.322;22.816;2023-07-08T06:21:36;6.95;;;4.28;;
22922;SDS011;11627;51.322;22.816;2023-07-08T06:24:02;8.95;;;3.90;;
22922;SDS011;11627;51.322;22.816;2023-07-08T06:26:29;7.95;;;3.55;;
22922;SDS011;11627;51.322;22.816;2023-07-08T06:28:54;7.60;;;3.92;;
22922;SDS011;11627;51.322;22.816;2023-07-08T06:31:20;6.70;;;3.10;;
22922;SDS011;11627;51.322;22.816;2023-07-08T06:33:46;5.82;;;3.30;;
22922;SDS011;11627;51.322;22.816;2023-07-08T06:36:12;6.85;;;3.50;;
22922;SDS011;11627;51.322;22.816;2023-07-08T06:38:38;4.30;;;3.08;;
22922;SDS011;11627;51.322;22.816;2023-07-08T06:41:03;10.30;;;3.97;;
22922;SDS011;11627;51.322;22.816;2023-07-08T06:43:29;6.88;;;2.78;;
22922;SDS011;11627;51.322;22.816;2023-07-08T06:45:55;7.57;;;2.80;;
22922;SDS011;11627;51.322;22.816;2023-07-08T06:48:21;4.20;;;2.75;;
22922;SDS011;11627;51.322;22.816;2023-07-08T06:50:49;5.40;;;2.80;;
22922;SDS011;11627;51.322;22.816;2023-07-08T06:53:15;8.05;;;3.15;;
22922;SDS011;11627;51.322;22.816;2023-07-08T06:55:43;13.23;;;3.05;;
22922;SDS011;11627;51.322;22.816;2023-07-08T06:58:12;9.43;;;3.55;;
22922;SDS011;11627;51.322;22.816;2023-07-08T07:00:41;4.82;;;2.80;;
22922;SDS011;11627;51.322;22.816;2023-07-08T07:03:08;4.47;;;2.70;;
22922;SDS011;11627;51.322;22.816;2023-07-08T07:05:34;5.32;;;2.55;;
22922;SDS011;11627;51.322;22.816;2023-07-08T07:08:00;2.53;;;2.33;;
22922;SDS011;11627;51.322;22.816;2023-07-08T07:10:26;3.97;;;2.97;;
22922;SDS011;11627;51.322;22.816;2023-07-08T07:12:52;5.47;;;2.50;;
22922;SDS011;11627;51.322;22.816;2023-07-08T07:15:18;4.63;;;2.53;;
22922;SDS011;11627;51.322;22.816;2023-07-08T07:17:44;3.65;;;2.38;;
22922;SDS011;11627;51.322;22.816;2023-07-08T07:20:10;3.80;;;2.60;;
22922;SDS011;11627;51.322;22.816;2023-07-08T07:22:37;4.75;;;2.72;;
22922;SDS011;11627;51.322;22.816;2023-07-08T07:25:03;3.05;;;2.30;;
22922;SDS011;11627;51.322;22.816;2023-07-08T07:27:29;4.22;;;2.67;;
22922;SDS011;11627;51.322;22.816;2023-07-08T07:29:56;4.32;;;2.47;;
22922;SDS011;11627;51.322;22.816;2023-07-08T07:32:24;6.05;;;2.47;;
22922;SDS011;11627;51.322;22.816;2023-07-08T07:34:51;6.68;;;2.78;;
22922;SDS011;11627;51.322;22.816;2023-07-08T07:37:18;6.75;;;2.53;;
22922;SDS011;11627;51.322;22.816;2023-07-08T07:39:45;3.45;;;2.88;;
22922;SDS011;11627;51.322;22.816;2023-07-08T07:42:12;4.13;;;2.75;;
22922;SDS011;11627;51.322;22.816;2023-07-08T07:44:39;6.22;;;2.45;;
22922;SDS011;11627;51.322;22.816;2023-07-08T07:47:06;5.68;;;2.78;;
22922;SDS011;11627;51.322;22.816;2023-07-08T07:49:33;8.77;;;2.78;;
22922;SDS011;11627;51.322;22.816;2023-07-08T07:51:59;4.47;;;2.65;;
22922;SDS011;11627;51.322;22.816;2023-07-08T07:54:25;6.53;;;3.17;;
22922;SDS011;11627;51.322;22.816;2023-07-08T07:56:52;3.47;;;2.58;;
22922;SDS011;11627;51.322;22.816;2023-07-08T07:59:18;4.95;;;3.55;;
22922;SDS011;11627;51.322;22.816;2023-07-08T08:01:44;6.88;;;2.63;;
22922;SDS011;11627;51.322;22.816;2023-07-08T08:04:10;5.43;;;2.25;;
22922;SDS011;11627;51.322;22.816;2023-07-08T08:06:37;6.47;;;2.78;;
22922;SDS011;11627;51.322;22.816;2023-07-08T08:09:06;3.38;;;2.38;;
22922;SDS011;11627;51.322;22.816;2023-07-08T08:11:32;3.88;;;2.30;;
22922;SDS011;11627;51.322;22.816;2023-07-08T08:13:59;4.93;;;2.35;;
22922;SDS011;11627;51.322;22.816;2023-07-08T08:16:26;2.65;;;2.17;;
22922;SDS011;11627;51.322;22.816;2023-07-08T08:18:52;4.75;;;2.13;;
22922;SDS011;11627;51.322;22.816;2023-07-08T08:21:17;4.05;;;2.80;;
22922;SDS011;11627;51.322;22.816;2023-07-08T08:23:43;8.77;;;2.72;;
22922;SDS011;11627;51.322;22.816;2023-07-08T08:26:09;5.28;;;2.30;;
22922;SDS011;11627;51.322;22.816;2023-07-08T08:28:35;3.78;;;2.15;;
22922;SDS011;11627;51.322;22.816;2023-07-08T08:31:01;3.97;;;2.22;;
22922;SDS011;11627;51.322;22.816;2023-07-08T08:33:27;3.83;;;1.95;;
22922;SDS011;11627;51.322;22.816;2023-07-08T08:35:53;3.92;;;2.20;;
22922;SDS011;11627;51.322;22.816;2023-07-08T08:38:18;3.95;;;2.03;;
22922;SDS011;11627;51.322;22.816;2023-07-08T08:40:44;5.07;;;2.10;;
22922;SDS011;11627;51.322;22.816;2023-07-08T08:43:21;4.03;;;1.90;;
22922;SDS011;11627;51.322;22.816;2023-07-08T08:46:00;3.45;;;2.03;;
22922;SDS011;11627;51.322;22.816;2023-07-08T08:48:32;3.88;;;2.10;;
22922;SDS011;11627;51.322;22.816;2023-07-08T08:51:14;4.10;;;2.38;;
22922;SDS011;11627;51.322;22.816;2023-07-08T08:53:40;4.18;;;2.20;;
22922;SDS011;11627;51.322;22.816;2023-07-08T08:56:20;8.10;;;2.30;;
22922;SDS011;11627;51.322;22.816;2023-07-08T09:01:30;2.72;;;2.08;;
22922;SDS011;11627;51.322;22.816;2023-07-08T09:04:03;3.95;;;2.50;;
22922;SDS011;11627;51.322;22.816;2023-07-08T09:06:40;3.58;;;1.88;;
22922;SDS011;11627;51.322;22.816;2023-07-08T09:09:14;3.85;;;2.38;;
22922;SDS011;11627;51.322;22.816;2023-07-08T09:14:36;3.03;;;2.20;;
22922;SDS011;11627;51.322;22.816;2023-07-08T09:23:03;4.47;;;2.20;;
22922;SDS011;11627;51.322;22.816;2023-07-08T09:25:47;2.35;;;1.80;;
22922;SDS011;11627;51.322;22.816;2023-07-08T09:28:45;5.13;;;2.30;;
22922;SDS011;11627;51.322;22.816;2023-07-08T09:31:24;4.07;;;2.20;;
22922;SDS011;11627;51.322;22.816;2023-07-08T09:34:13;5.45;;;2.20;;
22922;SDS011;11627;51.322;22.816;2023-07-08T09:36:46;4.70;;;2.40;;
22922;SDS011;11627;51.322;22.816;2023-07-08T09:39:14;3.85;;;2.20;;
22922;SDS011;11627;51.322;22.816;2023-07-08T09:41:44;2.78;;;2.28;;
22922;SDS011;11627;51.322;22.816;2023-07-08T09:44:30;3.17;;;2.40;;
22922;SDS011;11627;51.322;22.816;2023-07-08T09:46:58;5.70;;;2.20;;
22922;SDS011;11627;51.322;22.816;2023-07-08T09:51:58;5.05;;;2.40;;
22922;SDS011;11627;51.322;22.816;2023-07-08T09:54:26;6.05;;;2.30;;
22922;SDS011;11627;51.322;22.816;2023-07-08T09:57:03;4.85;;;2.25;;
22922;SDS011;11627;51.322;22.816;2023-07-08T09:59:47;5.63;;;2.33;;
22922;SDS011;11627;51.322;22.816;2023-07-08T10:05:34;4.10;;;2.40;;
22922;SDS011;11627;51.322;22.816;2023-07-08T10:08:14;2.55;;;2.35;;
22922;SDS011;11627;51.322;22.816;2023-07-08T10:10:46;2.90;;;2.30;;
22922;SDS011;11627;51.322;22.816;2023-07-08T10:13:20;3.47;;;2.40;;
22922;SDS011;11627;51.322;22.816;2023-07-08T10:16:23;2.60;;;2.40;;
22922;SDS011;11627;51.322;22.816;2023-07-08T10:18:55;4.30;;;2.38;;
22922;SDS011;11627;51.322;22.816;2023-07-08T10:29:56;7.07;;;2.88;;
22922;SDS011;11627;51.322;22.816;2023-07-08T10:35:40;5.63;;;2.50;;
22922;SDS011;11627;51.322;22.816;2023-07-08T10:38:27;8.57;;;2.33;;
22922;SDS011;11627;51.322;22.816;2023-07-08T10:41:01;4.78;;;2.22;;
22922;SDS011;11627;51.322;22.816;2023-07-08T10:43:45;4.90;;;2.45;;
22922;SDS011;11627;51.322;22.816;2023-07-08T10:46:46;2.30;;;1.98;;
22922;SDS011;11627;51.322;22.816;2023-07-08T10:49:35;5.28;;;2.63;;
22922;SDS011;11627;51.322;22.816;2023-07-08T11:00:24;4.53;;;2.00;;
22922;SDS011;11627;51.322;22.816;2023-07-08T11:09:35;4.05;;;2.30;;
22922;SDS011;11627;51.322;22.816;2023-07-08T11:15:04;2.65;;;2.30;;
22922;SDS011;11627;51.322;22.816;2023-07-08T11:20:40;6.40;;;2.20;;
22922;SDS011;11627;51.322;22.816;2023-07-08T11:23:14;3.63;;;2.40;;
22922;SDS011;11627;51.322;22.816;2023-07-08T11:25:54;4.88;;;3.08;;
22922;SDS011;11627;51.322;22.816;2023-07-08T11:28:59;6.22;;;2.75;;
22922;SDS011;11627;51.322;22.816;2023-07-08T11:31:27;6.63;;;2.33;;
22922;SDS011;11627;51.322;22.816;2023-07-08T11:33:57;6.47;;;2.70;;
22922;SDS011;11627;51.322;22.816;2023-07-08T11:36:25;3.15;;;2.10;;
22922;SDS011;11627;51.322;22.816;2023-07-08T11:38:54;4.90;;;2.30;;
22922;SDS011;11627;51.322;22.816;2023-07-08T11:41:23;4.18;;;2.28;;
22922;SDS011;11627;51.322;22.816;2023-07-08T11:43:59;2.28;;;2.08;;
22922;SDS011;11627;51.322;22.816;2023-07-08T11:46:30;2.90;;;1.98;;
22922;SDS011;11627;51.322;22.816;2023-07-08T11:49:10;2.28;;;2.03;;
22922;SDS011;11627;51.322;22.816;2023-07-08T11:51:39;5.95;;;2.30;;
22922;SDS011;11627;51.322;22.816;2023-07-08T11:54:13;2.72;;;2.10;;
22922;SDS011;11627;51.322;22.816;2023-07-08T11:59:47;3.58;;;2.17;;
22922;SDS011;11627;51.322;22.816;2023-07-08T12:02:14;2.55;;;2.03;;
22922;SDS011;11627;51.322;22.816;2023-07-08T12:04:52;7.07;;;2.40;;
22922;SDS011;11627;51.322;22.816;2023-07-08T12:07:21;4.28;;;2.35;;
22922;SDS011;11627;51.322;22.816;2023-07-08T12:12:44;3.05;;;2.42;;
22922;SDS011;11627;51.322;22.816;2023-07-08T12:15:22;5.10;;;2.70;;
22922;SDS011;11627;51.322;22.816;2023-07-08T12:18:02;4.40;;;3.10;;
22922;SDS011;11627;51.322;22.816;2023-07-08T12:20:38;3.88;;;2.63;;
22922;SDS011;11627;51.322;22.816;2023-07-08T12:23:13;3.42;;;2.20;;
22922;SDS011;11627;51.322;22.816;2023-07-08T12:25:46;2.85;;;2.35;;
22922;SDS011;11627;51.322;22.816;2023-07-08T12:28:13;5.00;;;2.38;;
22922;SDS011;11627;51.322;22.816;2023-07-08T12:30:41;4.13;;;2.53;;
22922;SDS011;11627;51.322;22.816;2023-07-08T12:33:12;4.00;;;2.55;;
22922;SDS011;11627;51.322;22.816;2023-07-08T12:35:42;2.70;;;2.25;;
22922;SDS011;11627;51.322;22.816;2023-07-08T12:40:52;5.78;;;2.47;;
22922;SDS011;11627;51.322;22.816;2023-07-08T12:43:18;4.13;;;2.20;;
22922;SDS011;11627;51.322;22.816;2023-07-08T12:45:44;6.28;;;3.25;;
22922;SDS011;11627;51.322;22.816;2023-07-08T12:48:11;5.75;;;2.28;;
22922;SDS011;11627;51.322;22.816;2023-07-08T12:50:38;3.90;;;2.40;;
22922;SDS011;11627;51.322;22.816;2023-07-08T12:53:04;2.50;;;2.30;;
22922;SDS011;11627;51.322;22.816;2023-07-08T12:55:37;5.63;;;2.17;;
22922;SDS011;11627;51.322;22.816;2023-07-08T12:58:09;3.08;;;2.30;;
22922;SDS011;11627;51.322;22.816;2023-07-08T13:00:52;5.10;;;2.65;;
22922;SDS011;11627;51.322;22.816;2023-07-08T13:03:19;2.92;;;2.10;;
22922;SDS011;11627;51.322;22.816;2023-07-08T13:05:48;4.53;;;2.63;;
22922;SDS011;11627;51.322;22.816;2023-07-08T13:08:17;3.50;;;2.80;;
22922;SDS011;11627;51.322;22.816;2023-07-08T13:10:47;4.38;;;2.30;;
22922;SDS011;11627;51.322;22.816;2023-07-08T13:13:35;2.92;;;2.17;;
22922;SDS011;11627;51.322;22.816;2023-07-08T13:16:09;5.07;;;2.38;;
22922;SDS011;11627;51.322;22.816;2023-07-08T13:18:37;4.80;;;2.35;;
22922;SDS011;11627;51.322;22.816;2023-07-08T13:21:06;6.78;;;2.70;;
22922;SDS011;11627;51.322;22.816;2023-07-08T13:23:36;4.68;;;2.40;;
22922;SDS011;11627;51.322;22.816;2023-07-08T13:26:13;3.30;;;2.63;;
22922;SDS011;11627;51.322;22.816;2023-07-08T13:28:48;3.25;;;2.20;;
22922;SDS011;11627;51.322;22.816;2023-07-08T13:33:50;6.22;;;2.60;;
22922;SDS011;11627;51.322;22.816;2023-07-08T13:36:21;2.90;;;2.33;;
22922;SDS011;11627;51.322;22.816;2023-07-08T13:39:02;5.65;;;2.60;;
22922;SDS011;11627;51.322;22.816;2023-07-08T13:41:33;3.08;;;2.40;;
22922;SDS011;11627;51.322;22.816;2023-07-08T13:44:04;9.20;;;2.58;;
22922;SDS011;11627;51.322;22.816;2023-07-08T13:49:38;4.10;;;2.50;;
22922;SDS011;11627;51.322;22.816;2023-07-08T13:54:42;2.40;;;2.20;;
22922;SDS011;11627;51.322;22.816;2023-07-08T13:57:16;3.65;;;2.58;;
22922;SDS011;11627;51.322;22.816;2023-07-08T13:59:45;4.93;;;2.60;;
22922;SDS011;11627;51.322;22.816;2023-07-08T14:04:48;2.45;;;2.25;;
22922;SDS011;11627;51.322;22.816;2023-07-08T14:07:16;2.47;;;2.28;;
22922;SDS011;11627;51.322;22.816;2023-07-08T14:09:47;4.82;;;2.28;;
22922;SDS011;11627;51.322;22.816;2023-07-08T14:12:13;3.88;;;2.28;;
22922;SDS011;11627;51.322;22.816;2023-07-08T14:14:39;4.47;;;2.28;;
22922;SDS011;11627;51.322;22.816;2023-07-08T14:17:05;2.40;;;2.13;;
22922;SDS011;11627;51.322;22.816;2023-07-08T14:19:40;4.28;;;2.40;;
22922;SDS011;11627;51.322;22.816;2023-07-08T14:24:44;4.20;;;2.30;;
22922;SDS011;11627;51.322;22.816;2023-07-08T14:27:10;3.40;;;2.40;;
22922;SDS011;11627;51.322;22.816;2023-07-08T14:29:39;2.88;;;2.30;;
22922;SDS011;11627;51.322;22.816;2023-07-08T14:32:10;2.40;;;2.17;;
22922;SDS011;11627;51.322;22.816;2023-07-08T14:34:40;4.28;;;2.35;;
22922;SDS011;11627;51.322;22.816;2023-07-08T14:37:11;2.28;;;2.08;;
22922;SDS011;11627;51.322;22.816;2023-07-08T14:39:39;5.25;;;2.40;;
22922;SDS011;11627;51.322;22.816;2023-07-08T14:42:08;4.05;;;2.38;;
22922;SDS011;11627;51.322;22.816;2023-07-08T14:44:37;2.40;;;2.20;;
22922;SDS011;11627;51.322;22.816;2023-07-08T14:47:08;5.07;;;2.13;;
22922;SDS011;11627;51.322;22.816;2023-07-08T14:49:38;2.65;;;2.33;;
22922;SDS011;11627;51.322;22.816;2023-07-08T14:52:06;3.50;;;2.15;;
22922;SDS011;11627;51.322;22.816;2023-07-08T14:54:34;2.80;;;2.17;;
22922;SDS011;11627;51.322;22.816;2023-07-08T14:57:00;5.20;;;2.30;;
22922;SDS011;11627;51.322;22.816;2023-07-08T14:59:28;4.28;;;2.35;;
22922;SDS011;11627;51.322;22.816;2023-07-08T15:01:57;2.33;;;2.13;;
22922;SDS011;11627;51.322;22.816;2023-07-08T15:04:24;2.33;;;2.13;;
22922;SDS011;11627;51.322;22.816;2023-07-08T15:06:50;4.50;;;2.20;;
22922;SDS011;11627;51.322;22.816;2023-07-08T15:09:19;3.83;;;2.03;;
22922;SDS011;11627;51.322;22.816;2023-07-08T15:11:45;4.60;;;2.20;;
22922;SDS011;11627;51.322;22.816;2023-07-08T15:14:24;2.35;;;2.15;;
22922;SDS011;11627;51.322;22.816;2023-07-08T15:16:51;3.63;;;2.08;;
22922;SDS011;11627;51.322;22.816;2023-07-08T15:19:20;5.65;;;2.10;;
22922;SDS011;11627;51.322;22.816;2023-07-08T15:21:47;4.78;;;2.30;;
22922;SDS011;11627;51.322;22.816;2023-07-08T15:24:13;3.45;;;2.20;;
22922;SDS011;11627;51.322;22.816;2023-07-08T15:26:44;3.88;;;2.30;;
22922;SDS011;11627;51.322;22.816;2023-07-08T15:29:14;5.47;;;2.55;;
22922;SDS011;11627;51.322;22.816;2023-07-08T15:31:43;2.90;;;2.05;;
22922;SDS011;11627;51.322;22.816;2023-07-08T15:34:17;3.17;;;2.20;;
22922;SDS011;11627;51.322;22.816;2023-07-08T15:36:45;5.40;;;2.28;;
22922;SDS011;11627;51.322;22.816;2023-07-08T15:39:12;6.43;;;2.25;;
22922;SDS011;11627;51.322;22.816;2023-07-08T15:41:38;7.57;;;2.60;;
22922;SDS011;11627;51.322;22.816;2023-07-08T15:44:07;2.72;;;2.30;;
22922;SDS011;11627;51.322;22.816;2023-07-08T15:46:42;3.25;;;2.10;;
22922;SDS011;11627;51.322;22.816;2023-07-08T15:51:42;3.65;;;2.72;;
22922;SDS011;11627;51.322;22.816;2023-07-08T15:54:09;3.00;;;2.08;;
22922;SDS011;11627;51.322;22.816;2023-07-08T15:56:36;4.75;;;2.30;;
22922;SDS011;11627;51.322;22.816;2023-07-08T15:59:03;3.92;;;2.30;;
22922;SDS011;11627;51.322;22.816;2023-07-08T16:01:29;5.30;;;2.20;;
22922;SDS011;11627;51.322;22.816;2023-07-08T16:03:56;4.72;;;2.30;;
22922;SDS011;11627;51.322;22.816;2023-07-08T16:06:22;4.45;;;2.15;;
22922;SDS011;11627;51.322;22.816;2023-07-08T16:08:48;3.03;;;2.22;;
22922;SDS011;11627;51.322;22.816;2023-07-08T16:11:22;3.55;;;2.25;;
22922;SDS011;11627;51.322;22.816;2023-07-08T16:13:54;2.58;;;2.17;;